Time;durP1;ratioP1;P1;durP2;ratioP2;P2;SDS_P1;SDS_P2;PMS_P1;PMS_P2;Temp;Humidity;BMP_temperature;BMP_pressure;BME280_temperature;BME280_humidity;BME280_pressure;Samples;Min_cycle;Max_cycle;Signal;HPM_P1;HPM_P2
2022/09/27 00:02:11;;;;;;;;;;;;;;;;;;5012791;28;19944;-81
2022/09/27 00:04:57;;;;;;;;;;;;;;;;;;5024384;28;19928;-81
2022/09/27 00:07:44;;;;;;;;;;;;;;;;;;5028833;28;19917;-81
2022/09/27 00:10:30;;;;;;;;;;;;;;;;;;5003691;28;20357;-81
2022/09/27 00:13:17;;;;;;;;;;;;;;;;;;5021723;28;19940;-82
2022/09/27 00:16:04;;;;;;;;;;;;;;;;;;5011336;28;19917;-81
2022/09/27 00:18:50;;;;;;;;;;;;;;;;;;5004976;28;19936;-84
2022/09/27 00:21:37;;;;;;;;;;;;;;;;;;5021998;28;20353;-83
2022/09/27 00:24:23;;;;;;;;;;;;;;;;;;5008031;28;19914;-84
2022/09/27 00:27:10;;;;;;;;;;;;;;;;;;5013514;28;19917;-84
2022/09/27 00:29:56;;;;;;;;;;;;;;;;;;5021102;28;20066;-83
2022/09/27 00:32:43;;;;;;;;;;;;;;;;;;5011317;28;19925;-84
2022/09/27 00:35:29;;;;;;;;;;;;;;;;;;5025292;28;20369;-82
2022/09/27 00:38:16;;;;;;;;;;;;;;;;;;5010237;28;19913;-81
2022/09/27 00:41:02;;;;;;;;;;;;;;;;;;5005007;28;19921;-81
2022/09/27 00:43:49;;;;;;;;;;;;;;;;;;5006843;28;20445;-80
2022/09/27 00:46:35;;;;;;;;;;;;;;;;;;5008162;28;20565;-81
2022/09/27 00:49:22;;;;;;;;;;;;;;;;;;5022556;28;20489;-81
2022/09/27 00:52:08;;;;;;;;;;;;;;;;;;5003927;28;19936;-83
2022/09/27 00:54:55;;;;;;;;;;;;;;;;;;5009332;28;19924;-82
2022/09/27 00:57:41;;;;;;;;;;;;;;;;;;4996786;28;20705;-82
2022/09/27 01:00:28;;;;;;;;;;;;;;;;;;4974601;28;19921;-82
2022/09/27 01:03:14;;;;;;;;;;;;;;;;;;5024846;28;19917;-82
2022/09/27 01:06:01;;;;;;;;;;;;;;;;;;5024579;28;19926;-82
2022/09/27 01:08:48;;;;;;;;;;;;;;;;;;5007457;28;19928;-82
2022/09/27 01:11:35;;;;;;;;;;;;;;;;;;5007589;28;20440;-82
2022/09/27 01:14:21;;;;;;;;;;;;;;;;;;5011786;28;19928;-84
2022/09/27 01:17:08;;;;;;;;;;;;;;;;;;5008649;28;20335;-85
2022/09/27 01:19:54;;;;;;;;;;;;;;;;;;5011361;28;19913;-83
2022/09/27 01:22:41;;;;;;;;;;;;;;;;;;5008991;28;19918;-83
2022/09/27 01:25:27;;;;;;;;;;;;;;;;;;5018271;28;19921;-84
2022/09/27 01:28:14;;;;;;;;;;;;;;;;;;5010798;28;19918;-83
2022/09/27 01:31:01;;;;;;;;;;;;;;;;;;5020864;28;19920;-82
2022/09/27 01:33:47;;;;;;;;;;;;;;;;;;5022539;28;19929;-81
2022/09/27 01:36:34;;;;;;;;;;;;;;;;;;5001064;28;19933;-82
2022/09/27 01:39:21;;;;;;;;;;;;;;;;;;5023591;28;19931;-82
2022/09/27 01:42:07;;;;;;;;;;;;;;;;;;5006016;28;19921;-82
2022/09/27 01:44:54;;;;;;;;;;;;;;;;;;5000626;28;20292;-81
2022/09/27 01:47:40;;;;;;;;;;;;;;;;;;4999690;28;19918;-81
2022/09/27 01:50:27;;;;;;;;;;;;;;;;;;5009185;28;20264;-81
2022/09/27 01:53:13;;;;;;;;;;;;;;;;;;5006678;28;19929;-81
2022/09/27 01:56:00;;;;;;;;;;;;;;;;;;5022862;28;19975;-80
2022/09/27 01:58:46;;;;;;;;;;;;;;;;;;5000533;28;19925;-81
2022/09/27 02:01:33;;;;;;;;;;;;;;;;;;5011875;28;19938;-81
2022/09/27 02:04:19;;;;;;;;;;;;;;;;;;5008419;28;19921;-81
2022/09/27 02:07:06;;;;;;;;;;;;;;;;;;5022327;28;19928;-81
2022/09/27 02:09:53;;;;;;;;;;;;;;;;;;5009349;28;19919;-81
2022/09/27 02:12:40;;;;;;;;;;;;;;;;;;5002482;28;19952;-82
2022/09/27 02:15:26;;;;;;;;;;;;;;;;;;5008278;28;19917;-82
2022/09/27 02:18:13;;;;;;;;;;;;;;;;;;4998096;28;20292;-84
2022/09/27 02:20:59;;;;;;;;;;;;;;;;;;5009704;28;19929;-83
2022/09/27 02:23:46;;;;;;;;;;;;;;;;;;5008459;28;19921;-81
2022/09/27 02:26:32;;;;;;;;;;;;;;;;;;5008714;28;19921;-81
2022/09/27 02:29:19;;;;;;;;;;;;;;;;;;5003248;28;19928;-81
2022/09/27 02:32:05;;;;;;;;;;;;;;;;;;5009558;28;20602;-81
2022/09/27 02:34:52;;;;;;;;;;;;;;;;;;5009242;28;19922;-82
2022/09/27 02:37:38;;;;;;;;;;;;;;;;;;5005573;28;20021;-82
2022/09/27 02:40:25;;;;;;;;;;;;;;;;;;5018085;28;19921;-81
2022/09/27 02:43:12;;;;;;;;;;;;;;;;;;5003515;28;20371;-81
2022/09/27 02:45:59;;;;;;;;;;;;;;;;;;5017169;28;19921;-84
2022/09/27 02:48:45;;;;;;;;;;;;;;;;;;5008424;28;19925;-83
2022/09/27 02:51:32;;;;;;;;;;;;;;;;;;5003133;28;19929;-83
2022/09/27 02:54:19;;;;;;;;;;;;;;;;;;5010393;28;20403;-81
2022/09/27 02:57:05;;;;;;;;;;;;;;;;;;5018670;28;20292;-83
2022/09/27 02:59:51;;;;;;;;;;;;;;;;;;5015966;28;19921;-81
2022/09/27 03:02:38;;;;;;;;;;;;;;;;;;5008894;28;20420;-81
2022/09/27 03:05:24;;;;;;;;;;;;;;;;;;5007618;28;19927;-82
2022/09/27 03:08:11;;;;;;;;;;;;;;;;;;5006282;28;19928;-81
2022/09/27 03:10:57;;;;;;;;;;;;;;;;;;5024208;28;20296;-80
2022/09/27 03:13:44;;;;;;;;;;;;;;;;;;5025776;28;20397;-81
2022/09/27 03:16:31;;;;;;;;;;;;;;;;;;5022257;28;19921;-81
2022/09/27 03:19:18;;;;;;;;;;;;;;;;;;5008425;28;19928;-81
2022/09/27 03:22:04;;;;;;;;;;;;;;;;;;5021979;28;19924;-81
2022/09/27 03:24:51;;;;;;;;;;;;;;;;;;5009503;28;19921;-81
2022/09/27 03:27:38;;;;;;;;;;;;;;;;;;5023713;28;20588;-82
2022/09/27 03:30:24;;;;;;;;;;;;;;;;;;5006765;28;19913;-82
2022/09/27 03:33:11;;;;;;;;;;;;;;;;;;5017286;28;19925;-82
2022/09/27 03:35:57;;;;;;;;;;;;;;;;;;5011891;28;19933;-83
2022/09/27 03:38:44;;;;;;;;;;;;;;;;;;5029507;28;19918;-83
2022/09/27 03:41:30;;;;;;;;;;;;;;;;;;5002748;28;19950;-83
2022/09/27 03:44:16;;;;;;;;;;;;;;;;;;5026269;28;19928;-83
2022/09/27 03:47:03;;;;;;;;;;;;;;;;;;5026405;28;19928;-83
2022/09/27 03:49:49;;;;;;;;;;;;;;;;;;5010292;28;19925;-83
2022/09/27 03:52:36;;;;;;;;;;;;;;;;;;5024498;28;19925;-83
2022/09/27 03:55:22;;;;;;;;;;;;;;;;;;5001815;28;19923;-83
2022/09/27 03:58:09;;;;;;;;;;;;;;;;;;5000796;28;19997;-83
2022/09/27 04:00:55;;;;;;;;;;;;;;;;;;5023325;28;19925;-82
2022/09/27 04:03:42;;;;;;;;;;;;;;;;;;5009707;28;19921;-83
2022/09/27 04:06:29;;;;;;;;;;;;;;;;;;5024596;28;19921;-81
2022/09/27 04:09:15;;;;;;;;;;;;;;;;;;5010831;28;19927;-81
2022/09/27 04:12:05;;;;;;;;;;;;;;;;;;5007385;28;19925;-80
2022/09/27 04:14:51;;;;;;;;;;;;;;;;;;5009866;28;20372;-80
2022/09/27 04:17:38;;;;;;;;;;;;;;;;;;5012620;28;19925;-80
2022/09/27 04:20:24;;;;;;;;;;;;;;;;;;5001406;28;19913;-81
2022/09/27 04:23:11;;;;;;;;;;;;;;;;;;5004365;28;19917;-80
2022/09/27 04:25:57;;;;;;;;;;;;;;;;;;5012259;28;19922;-80
2022/09/27 04:28:45;;;;;;;;;;;;;;;;;;5020052;28;19921;-79
2022/09/27 04:31:31;;;;;;;;;;;;;;;;;;5009623;28;19926;-79
2022/09/27 04:36:25;;;;;;;;;;;;;;;;;;5004655;28;19951;-81
2022/09/27 04:37:24;;;;;;;;;;;;;;;;;;5014955;28;19943;-81
2022/09/27 04:40:11;;;;;;;;;;;;;;;;;;5004376;28;19918;-80
2022/09/27 04:42:57;;;;;;;;;;;;;;;;;;5006240;28;20101;-81
2022/09/27 04:45:43;;;;;;;;;;;;;;;;;;5001626;28;19921;-82
2022/09/27 04:48:30;;;;;;;;;;;;;;;;;;5005497;28;19943;-81
2022/09/27 04:51:17;;;;;;;;;;;;;;;;;;5005481;28;19921;-80
2022/09/27 04:54:03;;;;;;;;;;;;;;;;;;5024472;28;19921;-80
2022/09/27 04:56:50;;;;;;;;;;;;;;;;;;5001197;28;19917;-81
2022/09/27 04:59:36;;;;;;;;;;;;;;;;;;5004175;28;19927;-81
2022/09/27 05:02:23;;;;;;;;;;;;;;;;;;5010162;28;19920;-81
2022/09/27 05:05:09;;;;;;;;;;;;;;;;;;5005485;28;19921;-79
2022/09/27 05:07:56;;;;;;;;;;;;;;;;;;5021824;28;19917;-79
2022/09/27 05:10:42;;;;;;;;;;;;;;;;;;5007661;28;19956;-80
2022/09/27 05:13:29;;;;;;;;;;;;;;;;;;5021719;28;19936;-80
2022/09/27 05:16:16;;;;;;;;;;;;;;;;;;4993899;28;19917;-80
2022/09/27 05:19:02;;;;;;;;;;;;;;;;;;5012298;28;19921;-82
2022/09/27 05:21:49;;;;;;;;;;;;;;;;;;5005875;28;20372;-82
2022/09/27 05:24:37;;;;;;;;;;;;;;;;;;5023987;28;19921;-81
2022/09/27 05:27:23;;;;;;;;;;;;;;;;;;5024638;28;19949;-81
2022/09/27 05:30:10;;;;;;;;;;;;;;;;;;5008919;28;20434;-82
2022/09/27 05:32:56;;;;;;;;;;;;;;;;;;5028903;28;19921;-81
2022/09/27 05:35:46;;;;;;;;;;;;;;;;;;5012772;28;19917;-82
2022/09/27 05:38:34;;;;;;;;;;;;;;;;;;5013339;28;20392;-81
2022/09/27 05:41:20;;;;;;;;;;;;;;;;;;5012017;28;19920;-81
2022/09/27 05:44:06;;;;;;;;;;;;;;;;;;5002101;28;19955;-81
2022/09/27 05:46:53;;;;;;;;;;;;;;;;;;5012678;28;19925;-81
2022/09/27 05:49:39;;;;;;;;;;;;;;;;;;5012830;28;19963;-81
2022/09/27 05:52:26;;;;;;;;;;;;;;;;;;5010076;28;19925;-80
2022/09/27 05:55:12;;;;;;;;;;;;;;;;;;5010712;28;19918;-80
2022/09/27 05:57:59;;;;;;;;;;;;;;;;;;5009522;28;19921;-81
2022/09/27 06:00:45;;;;;;;;;;;;;;;;;;5011536;28;19914;-80
2022/09/27 06:03:32;;;;;;;;;;;;;;;;;;4999559;28;19921;-80
2022/09/27 06:06:18;;;;;;;;;;;;;;;;;;5011508;28;19921;-80
2022/09/27 06:09:05;;;;;;;;;;;;;;;;;;5010605;28;20361;-80
2022/09/27 06:11:52;;;;;;;;;;;;;;;;;;5025445;28;19925;-80
2022/09/27 06:14:39;;;;;;;;;;;;;;;;;;5012251;28;19921;-80
2022/09/27 06:17:25;;;;;;;;;;;;;;;;;;5007955;28;20380;-81
2022/09/27 06:20:12;;;;;;;;;;;;;;;;;;5008552;28;19933;-80
2022/09/27 06:22:58;;;;;;;;;;;;;;;;;;5022021;28;19924;-80
2022/09/27 06:25:45;;;;;;;;;;;;;;;;;;5014757;28;19917;-79
2022/09/27 06:28:34;;;;;;;;;;;;;;;;;;5007550;28;19925;-82
2022/09/27 06:31:20;;;;;;;;;;;;;;;;;;5007950;28;19913;-82
2022/09/27 06:34:07;;;;;;;;;;;;;;;;;;5001333;28;19936;-81
2022/09/27 06:36:56;;;;;;;;;;;;;;;;;;5010651;28;19917;-83
2022/09/27 06:39:42;;;;;;;;;;;;;;;;;;5009756;28;19921;-81
2022/09/27 06:42:29;;;;;;;;;;;;;;;;;;5007633;28;20411;-81
2022/09/27 06:45:15;;;;;;;;;;;;;;;;;;5005829;28;19921;-81
2022/09/27 06:48:02;;;;;;;;;;;;;;;;;;5005501;28;20429;-80
2022/09/27 06:50:48;;;;;;;;;;;;;;;;;;5031896;28;19933;-80
2022/09/27 06:53:35;;;;;;;;;;;;;;;;;;5007365;28;20349;-81
2022/09/27 06:56:21;;;;;;;;;;;;;;;;;;5007924;28;19913;-81
2022/09/27 07:02:13;;;;;;;;;;;;;;;;;;5024334;28;20310;-82
2022/09/27 07:04:59;;;;;;;;;;;;;;;;;;5002509;28;19924;-82
2022/09/27 07:07:47;;;;;;;;;;;;;;;;;;5013723;28;19909;-82
2022/09/27 07:10:34;;;;;;;;;;;;;;;;;;5017905;28;19919;-82
2022/09/27 07:13:20;;;;;;;;;;;;;;;;;;5013366;28;19921;-81
2022/09/27 07:16:07;;;;;;;;;;;;;;;;;;5005507;28;19917;-82
2022/09/27 07:18:53;;;;;;;;;;;;;;;;;;5016705;28;19916;-82
2022/09/27 07:21:40;;;;;;;;;;;;;;;;;;5011863;28;19921;-82
2022/09/27 07:24:26;;;;;;;;;;;;;;;;;;5016487;28;19913;-82
2022/09/27 07:27:14;;;;;;;;;;;;;;;;;;5015370;28;19913;-81
2022/09/27 07:30:01;;;;;;;;;;;;;;;;;;5014327;28;19913;-82
2022/09/27 07:32:48;;;;;;;;;;;;;;;;;;5013147;28;19921;-82
2022/09/27 07:35:38;;;;;;;;;;;;;;;;;;5007906;28;19913;-82
2022/09/27 07:38:25;;;;;;;;;;;;;;;;;;5026833;28;19924;-82
2022/09/27 07:41:12;;;;;;;;;;;;;;;;;;5013692;28;19928;-81
2022/09/27 07:43:59;;;;;;;;;;;;;;;;;;5022451;28;19917;-82
2022/09/27 07:46:46;;;;;;;;;;;;;;;;;;5030681;28;19917;-81
2022/09/27 07:49:32;;;;;;;;;;;;;;;;;;5016217;28;19931;-83
2022/09/27 07:52:18;;;;;;;;;;;;;;;;;;5016562;28;19925;-82
2022/09/27 07:55:05;;;;;;;;;;;;;;;;;;5008176;28;19913;-82
2022/09/27 07:57:52;;;;;;;;;;;;;;;;;;5015969;28;20387;-82
2022/09/27 08:00:39;;;;;;;;;;;;;;;;;;5013336;28;19928;-82
2022/09/27 08:03:26;;;;;;;;;;;;;;;;;;5009798;28;19921;-82
2022/09/27 08:06:13;;;;;;;;;;;;;;;;;;5010922;28;19924;-82
2022/09/27 08:09:00;;;;;;;;;;;;;;;;;;5010974;28;19923;-82
2022/09/27 08:11:47;;;;;;;;;;;;;;;;;;4999177;28;19937;-83
2022/09/27 08:14:34;;;;;;;;;;;;;;;;;;5007374;28;19924;-83
2022/09/27 08:17:20;;;;;;;;;;;;;;;;;;5005722;28;19917;-84
2022/09/27 08:20:07;;;;;;;;;;;;;;;;;;5014879;28;19921;-82
2022/09/27 08:22:53;;;;;;;;;;;;;;;;;;5010900;28;20560;-83
2022/09/27 08:25:40;;;;;;;;;;;;;;;;;;5012161;28;20096;-82
2022/09/27 08:28:27;;;;;;;;;;;;;;;;;;5007950;28;20382;-82
2022/09/27 08:31:13;;;;;;;;;;;;;;;;;;5008870;28;19921;-83
2022/09/27 08:34:00;;;;;;;;;;;;;;;;;;5023914;28;19929;-82
2022/09/27 08:36:47;;;;;;;;;;;;;;;;;;4999834;28;19921;-82
2022/09/27 08:39:33;;;;;;;;;;;;;;;;;;4997365;28;20288;-82
2022/09/27 08:42:20;;;;;;;;;;;;;;;;;;4998844;28;19921;-82
2022/09/27 08:45:07;;;;;;;;;;;;;;;;;;5002823;28;19933;-82
2022/09/27 08:47:54;;;;;;;;;;;;;;;;;;5010999;28;19929;-81
2022/09/27 08:50:40;;;;;;;;;;;;;;;;;;5011592;28;19944;-82
2022/09/27 08:53:27;;;;;;;;;;;;;;;;;;5003602;28;20388;-81
2022/09/27 08:56:14;;;;;;;;;;;;;;;;;;4998445;28;19924;-82
2022/09/27 08:59:01;;;;;;;;;;;;;;;;;;5009493;28;19932;-82
2022/09/27 09:01:47;;;;;;;;;;;;;;;;;;5011397;28;19921;-83
2022/09/27 09:04:34;;;;;;;;;;;;;;;;;;4998712;28;19918;-82
2022/09/27 09:07:20;;;;;;;;;;;;;;;;;;4998459;28;20361;-82
2022/09/27 09:10:07;;;;;;;;;;;;;;;;;;4999042;28;19928;-83
2022/09/27 09:12:53;;;;;;;;;;;;;;;;;;5009198;28;24950;-83
2022/09/27 09:15:55;;;;;;;;;;;;;;;;;;5016685;28;19940;-83
2022/09/27 09:18:42;;;;;;;;;;;;;;;;;;5008924;28;20395;-82
2022/09/27 09:21:28;;;;;;;;;;;;;;;;;;5010793;28;19917;-82
2022/09/27 09:24:15;;;;;;;;;;;;;;;;;;5007374;28;19928;-83
2022/09/27 09:27:02;;;;;;;;;;;;;;;;;;5024487;28;19924;-83
2022/09/27 09:29:49;;;;;;;;;;;;;;;;;;5011089;28;19921;-82
2022/09/27 09:32:37;;;;;;;;;;;;;;;;;;5011274;28;19922;-83
2022/09/27 09:35:23;;;;;;;;;;;;;;;;;;5009385;28;19921;-83
2022/09/27 09:38:10;;;;;;;;;;;;;;;;;;5019974;28;19920;-83
2022/09/27 09:40:56;;;;;;;;;;;;;;;;;;5009566;28;19917;-82
2022/09/27 09:43:43;;;;;;;;;;;;;;;;;;5010507;28;19928;-80
2022/09/27 09:46:29;;;;;;;;;;;;;;;;;;5023824;28;19932;-80
2022/09/27 09:49:16;;;;;;;;;;;;;;;;;;5008373;28;19925;-80
2022/09/27 09:52:03;;;;;;;;;;;;;;;;;;5019037;28;19922;-79
2022/09/27 09:54:49;;;;;;;;;;;;;;;;;;4998084;28;19921;-81
2022/09/27 09:57:36;;;;;;;;;;;;;;;;;;5004764;28;20368;-79
2022/09/27 10:00:22;;;;;;;;;;;;;;;;;;5009761;28;19932;-79
2022/09/27 10:03:09;;;;;;;;;;;;;;;;;;5020109;28;19921;-79
2022/09/27 10:05:55;;;;;;;;;;;;;;;;;;5010153;28;19915;-81
2022/09/27 10:08:42;;;;;;;;;;;;;;;;;;5010890;28;20395;-80
2022/09/27 10:11:28;;;;;;;;;;;;;;;;;;5025730;28;20355;-77
2022/09/27 10:14:15;;;;;;;;;;;;;;;;;;5013050;28;19929;-77
2022/09/27 10:17:01;;;;;;;;;;;;;;;;;;5021045;28;19924;-78
2022/09/27 10:19:48;;;;;;;;;;;;;;;;;;5020289;28;20319;-77
2022/09/27 10:22:35;;;;;;;;;;;;;;;;;;5014304;28;19917;-76
2022/09/27 10:25:22;;;;;;;;;;;;;;;;;;5027026;28;19932;-77
2022/09/27 10:28:08;;;;;;;;;;;;;;;;;;5010854;28;19917;-77
2022/09/27 10:30:55;;;;;;;;;;;;;;;;;;5005579;28;19918;-78
2022/09/27 10:33:41;;;;;;;;;;;;;;;;;;5022719;28;19925;-78
2022/09/27 10:36:28;;;;;;;;;;;;;;;;;;5010181;28;19968;-78
2022/09/27 10:39:14;;;;;;;;;;;;;;;;;;5002207;28;20266;-79
2022/09/27 10:42:01;;;;;;;;;;;;;;;;;;5021200;28;19920;-77
2022/09/27 10:44:47;;;;;;;;;;;;;;;;;;5004677;28;20305;-78
2022/09/27 10:47:34;;;;;;;;;;;;;;;;;;5010467;28;19917;-78
2022/09/27 10:50:20;;;;;;;;;;;;;;;;;;5010043;28;19940;-78
2022/09/27 10:53:07;;;;;;;;;;;;;;;;;;5007496;28;19932;-78
2022/09/27 10:55:53;;;;;;;;;;;;;;;;;;5010471;28;19921;-78
2022/09/27 10:58:40;;;;;;;;;;;;;;;;;;5015515;28;19933;-78
2022/09/27 11:01:26;;;;;;;;;;;;;;;;;;5020445;28;19917;-78
2022/09/27 11:04:13;;;;;;;;;;;;;;;;;;5007850;28;19940;-77
2022/09/27 11:06:59;;;;;;;;;;;;;;;;;;5024741;28;19921;-78
2022/09/27 11:09:47;;;;;;;;;;;;;;;;;;5010554;28;19918;-78
2022/09/27 11:12:35;;;;;;;;;;;;;;;;;;5022913;28;19949;-78
2022/09/27 11:15:23;;;;;;;;;;;;;;;;;;5009886;28;19917;-78
2022/09/27 11:18:09;;;;;;;;;;;;;;;;;;5009559;28;20407;-78
2022/09/27 11:20:56;;;;;;;;;;;;;;;;;;5002925;28;19920;-78
2022/09/27 11:23:43;;;;;;;;;;;;;;;;;;5002182;28;19932;-78
2022/09/27 11:26:29;;;;;;;;;;;;;;;;;;4999827;28;20016;-78
2022/09/27 11:29:16;;;;;;;;;;;;;;;;;;5003690;28;20439;-78
2022/09/27 11:32:03;;;;;;;;;;;;;;;;;;5006019;28;19925;-78
2022/09/27 11:34:52;;;;;;;;;;;;;;;;;;5024098;28;20650;-78
2022/09/27 11:37:39;;;;;;;;;;;;;;;;;;5005732;28;19921;-78
2022/09/27 11:40:25;;;;;;;;;;;;;;;;;;5008060;28;19924;-77
2022/09/27 11:43:12;;;;;;;;;;;;;;;;;;5025678;28;19913;-78
2022/09/27 11:45:58;;;;;;;;;;;;;;;;;;5005729;28;20435;-78
2022/09/27 11:48:45;;;;;;;;;;;;;;;;;;5026615;28;19924;-78
2022/09/27 11:51:31;;;;;;;;;;;;;;;;;;5009471;28;19913;-78
2022/09/27 11:54:18;;;;;;;;;;;;;;;;;;5007043;28;19917;-78
2022/09/27 11:57:04;;;;;;;;;;;;;;;;;;5028486;28;19947;-78
2022/09/27 11:59:51;;;;;;;;;;;;;;;;;;5015436;28;19917;-78
2022/09/27 12:02:37;;;;;;;;;;;;;;;;;;5016061;28;19939;-78
2022/09/27 12:05:24;;;;;;;;;;;;;;;;;;5028803;28;19920;-78
2022/09/27 12:08:12;;;;;;;;;;;;;;;;;;5010063;28;20402;-78
2022/09/27 12:10:58;;;;;;;;;;;;;;;;;;5030722;28;19909;-77
2022/09/27 12:13:45;;;;;;;;;;;;;;;;;;5011193;28;19917;-78
2022/09/27 12:16:31;;;;;;;;;;;;;;;;;;5010765;28;19909;-77
2022/09/27 12:19:18;;;;;;;;;;;;;;;;;;5020783;28;19913;-77
2022/09/27 12:22:04;;;;;;;;;;;;;;;;;;5016473;28;19955;-77
2022/09/27 12:24:51;;;;;;;;;;;;;;;;;;5024224;28;19917;-78
2022/09/27 12:27:37;;;;;;;;;;;;;;;;;;5024231;28;19917;-78
2022/09/27 12:30:23;;;;;;;;;;;;;;;;;;5012070;28;19928;-77
2022/09/27 12:33:10;;;;;;;;;;;;;;;;;;5011473;28;19925;-77
2022/09/27 12:35:56;;;;;;;;;;;;;;;;;;5029071;28;20778;-78
2022/09/27 12:38:43;;;;;;;;;;;;;;;;;;5024918;28;19932;-78
2022/09/27 12:41:30;;;;;;;;;;;;;;;;;;5006174;28;19928;-78
2022/09/27 12:44:17;;;;;;;;;;;;;;;;;;5004352;28;19917;-78
2022/09/27 12:47:03;;;;;;;;;;;;;;;;;;5008545;28;19917;-78
2022/09/27 12:49:50;;;;;;;;;;;;;;;;;;5022020;28;19960;-78
2022/09/27 12:52:36;;;;;;;;;;;;;;;;;;5011605;28;19922;-78
2022/09/27 12:55:23;;;;;;;;;;;;;;;;;;5003582;28;19921;-77
2022/09/27 12:58:09;;;;;;;;;;;;;;;;;;5021489;28;20277;-79
2022/09/27 13:00:56;;;;;;;;;;;;;;;;;;5018910;28;19917;-80
2022/09/27 13:03:42;;;;;;;;;;;;;;;;;;5008808;28;19921;-78
2022/09/27 13:06:30;;;;;;;;;;;;;;;;;;5009969;28;19921;-79
2022/09/27 13:09:17;;;;;;;;;;;;;;;;;;5007549;28;20620;-79
2022/09/27 13:12:03;;;;;;;;;;;;;;;;;;5024521;28;19923;-79
2022/09/27 13:14:50;;;;;;;;;;;;;;;;;;5023763;28;20256;-78
2022/09/27 13:17:39;;;;;;;;;;;;;;;;;;5005645;28;20678;-86
2022/09/27 13:20:25;;;;;;;;;;;;;;;;;;5009328;28;20394;-86
2022/09/27 13:23:12;;;;;;;;;;;;;;;;;;5011121;28;19928;-87
2022/09/27 13:25:59;;;;;;;;;;;;;;;;;;5011797;28;19921;-86
2022/09/27 13:28:46;;;;;;;;;;;;;;;;;;5012746;28;20258;-87
2022/09/27 13:31:32;;;;;;;;;;;;;;;;;;5016117;28;19929;-89
2022/09/27 13:34:21;;;;;;;;;;;;;;;;;;5010180;28;19917;-90
2022/09/27 13:37:07;;;;;;;;;;;;;;;;;;5017917;28;19909;-88
2022/09/27 13:39:54;;;;;;;;;;;;;;;;;;5016931;28;20461;-89
2022/09/27 13:42:41;;;;;;;;;;;;;;;;;;5018579;28;19992;-91
2022/09/27 13:45:28;;;;;;;;;;;;;;;;;;5017825;28;19919;-91
2022/09/27 13:48:14;;;;;;;;;;;;;;;;;;5021519;28;19909;-92
2022/09/27 13:51:01;;;;;;;;;;;;;;;;;;5008974;28;19931;-87
2022/09/27 13:53:48;;;;;;;;;;;;;;;;;;5016762;28;19925;-86
2022/09/27 13:56:35;;;;;;;;;;;;;;;;;;5011980;28;19992;-89
2022/09/27 13:59:21;;;;;;;;;;;;;;;;;;5014233;28;19917;-89
2022/09/27 14:02:08;;;;;;;;;;;;;;;;;;5014853;28;19940;-81
2022/09/27 14:04:54;;;;;;;;;;;;;;;;;;5024703;28;19917;-78
2022/09/27 14:07:40;;;;;;;;;;;;;;;;;;5010833;28;19920;-78
2022/09/27 14:10:27;;;;;;;;;;;;;;;;;;5011565;28;19924;-79
2022/09/27 14:13:13;;;;;;;;;;;;;;;;;;5011943;28;19921;-77
2022/09/27 14:16:00;;;;;;;;;;;;;;;;;;5011517;28;19913;-79
2022/09/27 14:18:49;;;;;;;;;;;;;;;;;;5025603;28;19952;-78
2022/09/27 14:21:36;;;;;;;;;;;;;;;;;;5026180;28;20485;-78
2022/09/27 14:24:22;;;;;;;;;;;;;;;;;;5010492;28;20444;-78
2022/09/27 14:27:09;;;;;;;;;;;;;;;;;;5011796;28;19920;-80
2022/09/27 14:29:55;;;;;;;;;;;;;;;;;;5023495;28;19918;-80
2022/09/27 14:32:42;;;;;;;;;;;;;;;;;;5009722;28;19925;-80
2022/09/27 14:38:34;;;;;;;;;;;;;;;;;;5022270;28;20300;-79
2022/09/27 14:41:20;;;;;;;;;;;;;;;;;;5009415;28;19927;-79
2022/09/27 14:44:06;;;;;;;;;;;;;;;;;;5006983;28;19940;-78
2022/09/27 14:46:53;;;;;;;;;;;;;;;;;;5010273;28;19921;-78
2022/09/27 14:49:39;;;;;;;;;;;;;;;;;;5023787;28;19971;-80
2022/09/27 14:52:30;;;;;;;;;;;;;;;;;;5007426;28;19921;-78
2022/09/27 14:55:16;;;;;;;;;;;;;;;;;;5023972;28;19917;-81
2022/09/27 14:58:03;;;;;;;;;;;;;;;;;;5011990;28;19913;-80
2022/09/27 15:00:50;;;;;;;;;;;;;;;;;;5025187;28;19944;-80
2022/09/27 15:03:38;;;;;;;;;;;;;;;;;;5024861;28;19921;-80
2022/09/27 15:06:25;;;;;;;;;;;;;;;;;;5001597;28;19925;-80
2022/09/27 15:09:12;;;;;;;;;;;;;;;;;;5006948;28;19924;-80
2022/09/27 15:11:59;;;;;;;;;;;;;;;;;;5017097;28;19917;-78
2022/09/27 15:14:47;;;;;;;;;;;;;;;;;;5023090;28;20406;-78
2022/09/27 15:17:33;;;;;;;;;;;;;;;;;;5021170;28;19921;-80
2022/09/27 15:20:20;;;;;;;;;;;;;;;;;;5018682;28;19921;-80
2022/09/27 15:23:07;;;;;;;;;;;;;;;;;;5024804;28;19913;-79
2022/09/27 15:25:53;;;;;;;;;;;;;;;;;;5007634;28;19921;-82
2022/09/27 15:28:40;;;;;;;;;;;;;;;;;;5027389;28;19918;-79
2022/09/27 15:31:26;;;;;;;;;;;;;;;;;;5013682;28;19916;-79
2022/09/27 15:34:13;;;;;;;;;;;;;;;;;;5009417;28;19933;-81
2022/09/27 15:37:02;;;;;;;;;;;;;;;;;;5027771;28;19917;-80
2022/09/27 15:39:48;;;;;;;;;;;;;;;;;;5028298;28;19917;-78
2022/09/27 15:42:36;;;;;;;;;;;;;;;;;;5016698;28;19919;-82
2022/09/27 15:45:22;;;;;;;;;;;;;;;;;;5015021;28;20410;-79
2022/09/27 15:48:09;;;;;;;;;;;;;;;;;;5015411;28;19924;-80
2022/09/27 15:50:55;;;;;;;;;;;;;;;;;;5009059;28;19922;-81
2022/09/27 15:53:42;;;;;;;;;;;;;;;;;;5014418;28;20459;-80
2022/09/27 15:56:28;;;;;;;;;;;;;;;;;;5014222;28;19917;-80
2022/09/27 15:59:15;;;;;;;;;;;;;;;;;;5007354;28;19917;-79
2022/09/27 16:02:02;;;;;;;;;;;;;;;;;;5012950;28;20364;-80
2022/09/27 16:04:48;;;;;;;;;;;;;;;;;;5013254;28;19923;-80
2022/09/27 16:07:35;;;;;;;;;;;;;;;;;;5014255;28;19913;-79
2022/09/27 16:10:22;;;;;;;;;;;;;;;;;;5015627;28;19924;-79
2022/09/27 16:13:08;;;;;;;;;;;;;;;;;;5014242;28;20369;-79
2022/09/27 16:15:55;;;;;;;;;;;;;;;;;;5014208;28;20340;-78
2022/09/27 16:18:42;;;;;;;;;;;;;;;;;;5011952;28;19919;-79
2022/09/27 16:21:29;;;;;;;;;;;;;;;;;;5013647;28;19915;-78
2022/09/27 16:24:16;;;;;;;;;;;;;;;;;;5015895;28;19936;-79
2022/09/27 16:27:03;;;;;;;;;;;;;;;;;;5017688;28;19924;-79
2022/09/27 16:29:50;;;;;;;;;;;;;;;;;;5010777;28;19975;-80
2022/09/27 16:32:36;;;;;;;;;;;;;;;;;;5007264;28;19997;-80
2022/09/27 16:35:23;;;;;;;;;;;;;;;;;;4995924;28;19921;-80
2022/09/27 16:38:09;;;;;;;;;;;;;;;;;;4999092;28;19918;-79
2022/09/27 16:40:56;;;;;;;;;;;;;;;;;;5012029;28;19921;-79
2022/09/27 16:43:44;;;;;;;;;;;;;;;;;;5006985;28;19924;-79
2022/09/27 16:46:33;;;;;;;;;;;;;;;;;;5008220;28;19943;-79
2022/09/27 16:52:24;;;;;;;;;;;;;;;;;;5023387;28;19921;-79
2022/09/27 16:55:11;;;;;;;;;;;;;;;;;;4999370;28;19929;-79
2022/09/27 16:57:58;;;;;;;;;;;;;;;;;;5010684;28;19939;-79
2022/09/27 17:00:44;;;;;;;;;;;;;;;;;;5010993;28;19917;-80
2022/09/27 17:03:31;;;;;;;;;;;;;;;;;;5011869;28;20285;-79
2022/09/27 17:06:17;;;;;;;;;;;;;;;;;;5020733;28;19929;-80
2022/09/27 17:09:04;;;;;;;;;;;;;;;;;;5011640;28;19925;-79
2022/09/27 17:11:50;;;;;;;;;;;;;;;;;;5009747;28;19982;-79
2022/09/27 17:14:37;;;;;;;;;;;;;;;;;;5027428;28;19936;-80
2022/09/27 17:17:24;;;;;;;;;;;;;;;;;;5009483;28;19921;-77
2022/09/27 17:20:11;;;;;;;;;;;;;;;;;;5022423;28;19913;-79
2022/09/27 17:22:58;;;;;;;;;;;;;;;;;;5010664;28;19921;-79
2022/09/27 17:25:44;;;;;;;;;;;;;;;;;;5007277;28;19913;-79
2022/09/27 17:28:31;;;;;;;;;;;;;;;;;;5010809;28;19920;-78
2022/09/27 17:31:17;;;;;;;;;;;;;;;;;;5027384;28;19924;-80
2022/09/27 17:34:04;;;;;;;;;;;;;;;;;;5029910;28;19925;-78
2022/09/27 17:36:50;;;;;;;;;;;;;;;;;;5026965;28;19919;-81
2022/09/27 17:39:37;;;;;;;;;;;;;;;;;;5010388;28;19913;-79
2022/09/27 17:42:24;;;;;;;;;;;;;;;;;;5025453;28;19924;-75
2022/09/27 17:45:10;;;;;;;;;;;;;;;;;;5024915;28;19913;-78
2022/09/27 17:51:02;;;;;;;;;;;;;;;;;;5020875;28;19951;-79
2022/09/27 17:53:49;;;;;;;;;;;;;;;;;;5011017;28;20562;-78
2022/09/27 17:56:36;;;;;;;;;;;;;;;;;;5009067;28;19913;-77
2022/09/27 17:59:22;;;;;;;;;;;;;;;;;;5011120;28;19924;-77
2022/09/27 18:02:09;;;;;;;;;;;;;;;;;;5005302;28;19921;-77
2022/09/27 18:04:55;;;;;;;;;;;;;;;;;;5014269;28;19921;-78
2022/09/27 18:07:42;;;;;;;;;;;;;;;;;;5027515;28;20001;-79
2022/09/27 18:10:28;;;;;;;;;;;;;;;;;;5019681;28;19913;-79
2022/09/27 18:13:15;;;;;;;;;;;;;;;;;;5006493;28;19918;-79
2022/09/27 18:16:01;;;;;;;;;;;;;;;;;;5014884;28;20383;-79
2022/09/27 18:18:48;;;;;;;;;;;;;;;;;;5012868;28;19919;-79
2022/09/27 18:21:34;;;;;;;;;;;;;;;;;;5030472;28;20384;-79
2022/09/27 18:24:21;;;;;;;;;;;;;;;;;;5029652;28;20296;-79
2022/09/27 18:27:07;;;;;;;;;;;;;;;;;;5011109;28;19924;-79
2022/09/27 18:29:54;;;;;;;;;;;;;;;;;;4997618;28;19928;-78
2022/09/27 18:32:41;;;;;;;;;;;;;;;;;;5007620;28;19921;-79
2022/09/27 18:35:28;;;;;;;;;;;;;;;;;;5024720;28;19960;-79
2022/09/27 18:38:15;;;;;;;;;;;;;;;;;;5027434;28;19917;-82
2022/09/27 18:41:01;;;;;;;;;;;;;;;;;;5008371;28;20292;-79
2022/09/27 18:43:48;;;;;;;;;;;;;;;;;;4998990;28;19920;-78
2022/09/27 18:46:34;;;;;;;;;;;;;;;;;;5020656;28;19917;-79
2022/09/27 18:49:21;;;;;;;;;;;;;;;;;;5021480;28;20402;-80
2022/09/27 18:52:07;;;;;;;;;;;;;;;;;;5022482;28;19921;-79
2022/09/27 18:54:54;;;;;;;;;;;;;;;;;;5001905;28;20503;-79
2022/09/27 18:57:40;;;;;;;;;;;;;;;;;;5005474;28;20467;-79
2022/09/27 19:00:28;;;;;;;;;;;;;;;;;;5008862;28;19923;-79
2022/09/27 19:03:15;;;;;;;;;;;;;;;;;;5012497;28;20587;-79
2022/09/27 19:06:01;;;;;;;;;;;;;;;;;;5028553;28;19917;-79
2022/09/27 19:08:47;;;;;;;;;;;;;;;;;;5026546;28;19921;-79
2022/09/27 19:11:34;;;;;;;;;;;;;;;;;;5010405;28;19928;-79